Startpagina
METAR-TAF:

METAR-TAF

Vliegvelden :

Porto Alegre, Rio Grande do Sul, Brazilië

Aeroporto Internacional Salgado Filho

breedte: 30-00S, lengte: 051-11W, hoogte: 3 m

Actueel weer

Dit bericht is 42 minuten geleden gemaakt, om 00:00 UTC
Wind 7 kt uit het oostzuidoosten
Temperatuur 19°C
Vochtigheid 88%
Druk 1023 hPa
Zicht 10 km of meer
geen wolken onder 1500 m en geen cumulonimbus

METAR: SBPA 260000Z 12007KT CAVOK 19/17 Q1023

Tijdstip: 21:42 (00:42 UTC)

Verwachting

Dit bericht is 2 uur en het 42 minuten geleden gemaakt, om 22:00 UTC
Verwachting geldig van 26 om 00 UTC tot 26 om 24 UTC
Wind 5 kt uit het oostzuidoosten
Zicht 10 km of meer
geen wolken onder 1500 m en geen cumulonimbus
Kans 30%
van 26 om 08 UTC tot 26 om 11 UTC
Zicht: 0500 m
Gebroken wolken op 200 ft
mist

TAF: SBPA 252200Z 2600/2624 11005KT CAVOK TN14/2609Z TX28/2618Z PROB30 2608/2611 0500 FG BKN002 RMK PER

Waarnemingen en weersverwachtingen van meer dan 4000 vliegvelden (METAR en TAF).

De beschikbare stations zijn de gele en rode punten op de kaart.

Ga met uw muis naar het station om de naam te zien.

Klik dan om waarnemingen en weersverwachtingen te zien.

kaart wijzigen: klik op de groene knoppen met een zwart kruis om in te zoomen, op de groene knop met een streepje om uit te zoomen of op de groene pijlen voor aangrenzende kaarten.


METAR-TAF: